Airport View

Enter AWOS ICAO identifier for current METAR.

ex. KFNL

KGLY 262230Z AUTO 36010KT 10SM OVC060 03/M05 A3029 RMK AO2

26 Feb 2020 22:32

Frequency: 120.475

Phone: 660-885-3851

Other Area AWOS: KSZL - KRCM - KDMO - KLRY

TAF KSZL 261900Z 2619/2801 33012G18KT 9999 BKN040 620406 QNH3022INS BECMG 2623/2624 33009KT 9999 FEW030 QNH3015INS BECMG 2711/2712 21009KT 9999 FEW050 BKN100 621002 QNH3005INS BECMG 2720/2721 27009KT 9999 OVC050 620504 QNH3004INS TX05/2719Z TNM03/2711Z